Time;durP1;ratioP1;P1;durP2;ratioP2;P2;SDS_P1;SDS_P2;PMS_P1;PMS_P2;Temp;Humidity;BMP_temperature;BMP_pressure;BME280_temperature;BME280_humidity;BME280_pressure;Samples;Min_cycle;Max_cycle;Signal;HPM_P1;HPM_P2
2022/05/13 00:01:26;;;;;;;15.02;2.20;;;12.40;99.90;;;;;;5015620;28;20049;-80
2022/05/13 00:03:55;;;;;;;12.18;1.75;;;12.40;99.90;;;;;;5015843;28;20064;-78
2022/05/13 00:06:22;;;;;;;;;;;12.50;99.90;;;;;;5014924;28;20049;-81
2022/05/13 00:08:50;;;;;;;13.63;2.40;;;12.50;99.90;;;;;;5015814;28;20265;-78
2022/05/13 00:11:17;;;;;;;8.32;2.00;;;12.50;99.90;;;;;;5014599;28;20042;-80
2022/05/13 00:13:45;;;;;;;11.20;1.98;;;12.50;99.90;;;;;;5015173;28;20057;-80
2022/05/13 00:16:12;;;;;;;12.00;2.35;;;12.50;99.90;;;;;;5015459;28;20050;-78
2022/05/13 00:18:40;;;;;;;10.85;2.05;;;12.50;99.90;;;;;;4997675;28;20060;-80
2022/05/13 00:21:08;;;;;;;10.68;2.15;;;12.50;99.90;;;;;;5015879;28;20065;-79
2022/05/13 00:23:36;;;;;;;11.90;2.20;;;12.50;99.90;;;;;;5015301;28;20046;-80
2022/05/13 00:26:04;;;;;;;13.88;2.30;;;12.40;99.90;;;;;;5014015;28;20046;-79
2022/05/13 00:28:31;;;;;;;8.85;2.10;;;12.40;99.90;;;;;;5015039;28;20365;-79
2022/05/13 00:31:01;;;;;;;7.70;1.73;;;12.40;99.90;;;;;;5014677;28;20050;-79
2022/05/13 00:33:29;;;;;;;13.60;2.00;;;12.40;99.90;;;;;;5015419;28;20061;-81
2022/05/13 00:35:57;;;;;;;12.15;1.98;;;12.40;99.90;;;;;;5015549;28;20045;-81
2022/05/13 00:38:25;;;;;;;8.88;2.15;;;12.40;99.90;;;;;;4997202;28;20057;-79
2022/05/13 00:40:53;;;;;;;8.80;1.70;;;12.40;99.90;;;;;;4998403;28;20046;-79
2022/05/13 00:43:39;;;;;;;11.35;1.85;;;12.40;99.90;;;;;;5014878;28;20369;-79
2022/05/13 00:46:07;;;;;;;11.60;1.75;;;12.40;99.90;;;;;;5014405;28;20054;-80
2022/05/13 00:48:35;;;;;;;12.00;1.88;;;12.30;99.90;;;;;;5015013;28;20052;-81
2022/05/13 00:51:05;;;;;;;9.38;1.65;;;12.30;99.90;;;;;;5014238;28;20445;-78
2022/05/13 00:53:34;;;;;;;7.82;1.83;;;12.20;99.90;;;;;;5014965;28;20057;-78
2022/05/13 00:56:02;;;;;;;12.30;1.77;;;12.20;99.90;;;;;;5014808;28;20050;-80
2022/05/13 00:58:31;;;;;;;;;;;12.20;99.90;;;;;;5014596;28;20050;-80
2022/05/13 01:00:59;;;;;;;10.98;1.77;;;12.10;99.90;;;;;;5015015;28;19928;-81
2022/05/13 01:03:27;;;;;;;11.20;2.20;;;12.10;99.90;;;;;;5015266;28;20049;-79
2022/05/13 01:05:59;;;;;;;10.52;1.92;;;12.00;99.90;;;;;;5013906;28;20057;-80
2022/05/13 01:08:32;;;;;;;11.57;1.90;;;12.00;99.90;;;;;;5015031;28;20065;-78
2022/05/13 01:11:04;;;;;;;9.02;1.90;;;11.90;99.90;;;;;;5014308;28;20548;-80
2022/05/13 01:13:33;;;;;;;13.10;1.80;;;11.90;99.90;;;;;;5015431;28;20042;-79
2022/05/13 01:16:01;;;;;;;8.43;1.80;;;11.80;99.90;;;;;;5015113;28;20465;-77
2022/05/13 01:18:35;;;;;;;12.10;1.88;;;11.80;99.90;;;;;;4996777;28;20045;-79
2022/05/13 01:21:05;;;;;;;9.50;1.50;;;11.70;99.90;;;;;;5014565;28;20057;-80
2022/05/13 01:23:40;;;;;;;10.90;1.80;;;11.70;99.90;;;;;;5017535;28;20042;-80
2022/05/13 01:26:15;;;;;;;7.50;1.58;;;11.70;99.90;;;;;;5017829;28;20065;-79
2022/05/13 01:28:52;;;;;;;14.88;1.70;;;11.70;99.90;;;;;;5018185;28;20377;-80
2022/05/13 01:31:22;;;;;;;9.07;1.50;;;11.70;99.90;;;;;;5017676;28;20038;-80
2022/05/13 01:33:50;;;;;;;9.00;1.30;;;11.60;99.90;;;;;;5018649;28;20041;-80
2022/05/13 01:36:18;;;;;;;11.02;1.38;;;11.60;99.90;;;;;;5018065;28;20042;-80
2022/05/13 01:38:46;;;;;;;11.02;1.27;;;11.50;99.90;;;;;;5017425;28;20053;-78
2022/05/13 01:41:14;;;;;;;;;;;11.50;99.90;;;;;;5018570;28;20472;-78
2022/05/13 01:43:43;;;;;;;11.15;1.30;;;11.50;99.90;;;;;;5018741;28;19944;-78
2022/05/13 01:46:11;;;;;;;6.22;1.00;;;11.50;99.90;;;;;;5017221;28;20049;-80
2022/05/13 01:48:39;;;;;;;9.68;1.40;;;11.50;99.90;;;;;;5018070;28;20046;-80
2022/05/13 01:51:07;;;;;;;6.18;1.10;;;11.50;99.90;;;;;;5017665;28;20038;-80
2022/05/13 01:53:35;;;;;;;6.93;1.17;;;11.40;99.90;;;;;;5018285;28;20050;-80
2022/05/13 01:56:04;;;;;;;9.45;1.40;;;11.40;99.90;;;;;;5018442;28;20049;-78
2022/05/13 01:58:34;;;;;;;7.38;1.02;;;11.40;99.90;;;;;;5017000;28;20052;-78
2022/05/13 02:01:03;;;;;;;;;;;11.40;99.90;;;;;;5018419;28;20044;-79
2022/05/13 02:03:46;;;;;;;4.30;1.05;;;11.40;99.90;;;;;;5017877;28;19929;-78
2022/05/13 02:06:22;;;;;;;5.45;1.13;;;11.40;99.90;;;;;;4999991;28;20052;-77
2022/05/13 02:08:52;;;;;;;5.85;1.00;;;11.40;99.90;;;;;;5017374;28;20042;-80
2022/05/13 02:11:21;;;;;;;7.25;1.00;;;11.30;99.90;;;;;;5000133;28;20038;-78
2022/05/13 02:13:50;;;;;;;6.82;1.23;;;11.30;99.90;;;;;;5000706;28;20441;-78
2022/05/13 02:16:18;;;;;;;8.25;1.45;;;11.30;99.90;;;;;;5017263;28;20042;-79
2022/05/13 02:18:45;;;;;;;8.00;1.20;;;11.30;99.90;;;;;;5016596;28;20196;-79
2022/05/13 02:21:14;;;;;;;10.43;1.10;;;11.30;99.90;;;;;;5017262;28;20045;-78
2022/05/13 02:23:41;;;;;;;;;;;11.30;99.90;;;;;;5017862;28;20046;-79
2022/05/13 02:26:11;;;;;;;10.18;1.30;;;11.30;99.90;;;;;;5016717;28;19921;-79
2022/05/13 02:28:40;;;;;;;6.20;0.93;;;11.30;99.90;;;;;;5017639;28;20038;-78
2022/05/13 02:31:09;;;;;;;12.13;1.30;;;11.30;99.90;;;;;;5016108;28;20049;-78
2022/05/13 02:33:38;;;;;;;8.68;1.30;;;11.20;99.90;;;;;;5017062;28;20042;-80
2022/05/13 02:36:06;;;;;;;6.30;1.20;;;11.30;99.90;;;;;;5017625;28;20046;-79
2022/05/13 02:38:35;;;;;;;8.13;1.35;;;11.20;99.90;;;;;;5016367;28;20049;-78
2022/05/13 02:41:12;;;;;;;7.28;1.20;;;11.20;99.90;;;;;;5017316;28;20368;-78
2022/05/13 02:43:48;;;;;;;6.55;1.27;;;11.20;99.90;;;;;;5017576;28;20046;-79
2022/05/13 02:46:36;;;;;;;9.98;1.10;;;11.20;99.90;;;;;;5016020;28;20064;-78
2022/05/13 02:49:04;;;;;;;9.32;1.40;;;11.10;99.90;;;;;;5017237;28;20049;-80
2022/05/13 02:51:31;;;;;;;6.55;1.08;;;11.10;99.90;;;;;;5016241;28;20053;-78
2022/05/13 02:53:59;;;;;;;4.55;1.20;;;11.10;99.90;;;;;;5017026;28;20461;-78
2022/05/13 02:56:26;;;;;;;7.95;1.25;;;11.10;99.90;;;;;;5017054;28;20050;-78
2022/05/13 02:58:54;;;;;;;10.75;1.48;;;11.10;99.90;;;;;;5015958;28;20045;-79
2022/05/13 03:01:21;;;;;;;8.27;1.60;;;11.00;99.90;;;;;;5017045;28;20046;-79
2022/05/13 03:03:50;;;;;;;5.22;1.10;;;11.00;99.90;;;;;;5016452;28;20400;-78
2022/05/13 03:06:19;;;;;;;9.02;1.33;;;11.00;99.90;;;;;;5015560;28;20042;-79
2022/05/13 03:08:49;;;;;;;10.40;1.35;;;11.00;99.90;;;;;;5017040;28;20042;-79
2022/05/13 03:11:17;;;;;;;5.75;1.25;;;11.00;99.90;;;;;;5015345;28;20046;-79
2022/05/13 03:13:44;;;;;;;6.07;1.33;;;10.90;99.90;;;;;;5016472;28;20038;-80
2022/05/13 03:16:19;;;;;;;9.13;1.35;;;11.00;99.90;;;;;;5016420;28;20049;-78
2022/05/13 03:18:53;;;;;;;6.95;0.93;;;10.90;99.90;;;;;;5015594;28;20046;-80
2022/05/13 03:21:22;;;;;;;10.25;1.40;;;11.00;99.90;;;;;;5016890;28;20122;-78
2022/05/13 03:23:50;;;;;;;8.57;1.40;;;10.90;99.90;;;;;;5016268;28;20056;-79
2022/05/13 03:26:19;;;;;;;;;;;10.90;99.90;;;;;;5015795;28;20053;-79
2022/05/13 03:28:47;;;;;;;7.63;1.40;;;10.90;99.90;;;;;;5016385;28;20271;-80
2022/05/13 03:31:15;;;;;;;7.28;1.13;;;10.80;99.90;;;;;;5015119;28;20058;-80
2022/05/13 03:33:43;;;;;;;8.13;1.20;;;10.90;99.90;;;;;;5016637;28;20457;-78
2022/05/13 03:36:12;;;;;;;6.03;1.20;;;10.80;99.90;;;;;;5015839;28;20053;-78
2022/05/13 03:38:41;;;;;;;13.15;1.60;;;10.80;99.90;;;;;;5015070;28;20346;-78
2022/05/13 03:41:10;;;;;;;7.57;1.10;;;10.80;99.90;;;;;;5016280;28;20050;-80
2022/05/13 03:43:38;;;;;;;9.32;1.30;;;10.80;99.90;;;;;;5016154;28;20467;-78
2022/05/13 03:46:08;;;;;;;5.85;1.23;;;10.80;99.90;;;;;;5014673;28;20069;-80
2022/05/13 03:48:37;;;;;;;8.88;1.30;;;10.80;99.90;;;;;;5016320;28;20057;-78
2022/05/13 03:51:05;;;;;;;9.95;1.30;;;10.80;99.90;;;;;;4998096;28;20045;-80
2022/05/13 03:53:33;;;;;;;10.77;1.42;;;10.80;99.90;;;;;;5016104;28;20068;-78
2022/05/13 03:56:01;;;;;;;11.05;1.92;;;10.80;99.90;;;;;;5015990;28;20050;-78
2022/05/13 03:58:30;;;;;;;11.98;1.55;;;10.80;99.90;;;;;;5014937;28;20068;-79
2022/05/13 04:00:58;;;;;;;8.25;1.45;;;10.80;99.90;;;;;;5015651;28;20445;-78
2022/05/13 04:03:26;;;;;;;11.07;1.60;;;10.70;99.90;;;;;;4998579;28;20485;-79
2022/05/13 04:08:59;;;;;;;10.50;1.50;;;10.80;99.90;;;;;;5015651;28;20054;-78
2022/05/13 04:11:31;;;;;;;10.13;1.40;;;10.70;99.90;;;;;;5014313;28;20046;-80
2022/05/13 04:16:45;;;;;;;10.75;1.50;;;10.70;99.90;;;;;;5015330;28;20038;-79
2022/05/13 04:19:13;;;;;;;10.32;1.88;;;10.70;99.90;;;;;;5014458;28;20045;-78
2022/05/13 04:21:41;;;;;;;11.63;1.90;;;10.70;99.90;;;;;;5015085;28;20468;-79
2022/05/13 04:24:12;;;;;;;20.48;2.00;;;10.70;99.90;;;;;;4996824;28;20075;-79
2022/05/13 04:26:40;;;;;;;11.73;1.83;;;10.70;99.90;;;;;;4998220;28;20053;-79
2022/05/13 04:29:10;;;;;;;7.72;1.60;;;10.70;99.90;;;;;;4998419;28;20045;-79
2022/05/13 04:31:40;;;;;;;7.90;1.25;;;10.70;99.90;;;;;;5014122;28;20050;-79
2022/05/13 04:34:11;;;;;;;10.50;1.90;;;10.70;99.90;;;;;;5015696;28;20041;-80
2022/05/13 04:36:38;;;;;;;10.52;1.63;;;10.70;99.90;;;;;;5015100;28;20361;-80
2022/05/13 04:39:06;;;;;;;13.48;1.83;;;10.80;99.90;;;;;;5014193;28;20404;-78
2022/05/13 04:44:21;;;;;;;11.98;2.00;;;10.80;99.90;;;;;;5014752;28;20050;-78
2022/05/13 04:46:48;;;;;;;;;;;10.80;99.90;;;;;;5015652;28;20046;-80
2022/05/13 04:49:16;;;;;;;9.18;1.77;;;10.80;99.90;;;;;;5015012;28;20244;-78
2022/05/13 04:51:43;;;;;;;8.10;1.67;;;10.90;99.90;;;;;;5014289;28;20038;-78
2022/05/13 04:54:11;;;;;;;12.02;2.03;;;10.90;99.90;;;;;;5014996;28;20042;-79
2022/05/13 04:56:39;;;;;;;10.07;2.05;;;10.90;99.90;;;;;;5016203;28;20062;-80
2022/05/13 04:59:07;;;;;;;12.85;1.90;;;11.00;99.90;;;;;;5017986;28;20052;-80
2022/05/13 05:01:35;;;;;;;;;;;11.00;99.90;;;;;;5019712;28;20049;-81
2022/05/13 05:04:03;;;;;;;14.25;2.10;;;11.00;99.90;;;;;;5018192;28;19921;-78
2022/05/13 05:06:30;;;;;;;10.82;1.80;;;11.00;99.90;;;;;;5018908;28;20053;-80
2022/05/13 05:09:00;;;;;;;14.45;1.90;;;11.10;99.90;;;;;;5018718;28;20483;-78
2022/05/13 05:11:30;;;;;;;13.50;2.25;;;11.10;99.90;;;;;;5017676;28;20377;-80
2022/05/13 05:13:58;;;;;;;10.15;1.98;;;11.20;99.90;;;;;;5018757;28;20053;-79
2022/05/13 05:16:25;;;;;;;16.05;2.13;;;11.30;99.90;;;;;;5001922;28;20049;-81
2022/05/13 05:18:54;;;;;;;12.13;2.00;;;11.30;99.90;;;;;;5017849;28;20124;-78
2022/05/13 05:21:21;;;;;;;13.45;2.03;;;11.30;99.90;;;;;;5018371;28;20065;-80
2022/05/13 05:23:49;;;;;;;10.95;2.05;;;11.40;99.90;;;;;;5019003;28;20057;-78
2022/05/13 05:26:16;;;;;;;18.80;2.38;;;11.50;99.90;;;;;;5017458;28;20046;-81
2022/05/13 05:28:44;;;;;;;13.30;2.40;;;11.50;99.90;;;;;;5018218;28;20053;-80
2022/05/13 05:31:12;;;;;;;13.82;2.17;;;11.60;99.90;;;;;;5017253;28;20050;-80
2022/05/13 05:33:42;;;;;;;9.23;1.60;;;11.60;99.90;;;;;;5018670;28;20046;-80
2022/05/13 05:36:10;;;;;;;12.32;1.92;;;11.70;99.90;;;;;;5018287;28;20073;-80
2022/05/13 05:38:38;;;;;;;;;;;11.80;99.90;;;;;;5017590;28;20041;-79
2022/05/13 05:41:05;;;;;;;10.07;1.80;;;11.80;99.90;;;;;;5018264;28;19921;-79
2022/05/13 05:43:35;;;;;;;9.45;1.95;;;11.90;99.90;;;;;;5000899;28;20054;-79
2022/05/13 05:46:03;;;;;;;12.52;2.42;;;11.90;99.90;;;;;;5000252;28;20054;-80
2022/05/13 05:48:31;;;;;;;13.00;2.22;;;12.00;99.90;;;;;;5001437;28;20054;-80
2022/05/13 05:50:59;;;;;;;;;;;12.10;99.90;;;;;;5017520;28;20085;-79
2022/05/13 05:59:04;;;;;;;13.38;2.38;;;12.30;99.90;;;;;;5017019;28;20373;-78
2022/05/13 06:01:32;;;;;;;13.45;2.08;;;12.40;99.90;;;;;;5001161;28;20054;-81
2022/05/13 06:03:59;;;;;;;18.38;2.50;;;12.40;99.90;;;;;;5017698;28;20334;-80
2022/05/13 06:06:27;;;;;;;14.68;2.33;;;12.50;99.90;;;;;;5017496;28;20054;-78
2022/05/13 06:08:57;;;;;;;17.13;2.50;;;12.50;99.90;;;;;;5017073;28;20046;-79
2022/05/13 06:11:25;;;;;;;15.43;2.40;;;12.60;99.90;;;;;;5016606;28;20051;-78
2022/05/13 06:13:58;;;;;;;15.30;2.30;;;12.70;99.90;;;;;;5018376;28;20045;-79
2022/05/13 06:16:28;;;;;;;19.15;2.63;;;12.80;99.90;;;;;;5018081;28;20057;-79
2022/05/13 06:19:00;;;;;;;13.80;1.92;;;12.90;99.90;;;;;;5016620;28;20046;-77
2022/05/13 06:21:31;;;;;;;16.67;2.40;;;12.90;99.90;;;;;;5018056;28;20361;-78
2022/05/13 06:23:59;;;;;;;11.38;2.10;;;12.90;99.90;;;;;;5000369;28;20061;-78
2022/05/13 06:26:28;;;;;;;13.82;2.25;;;12.90;99.90;;;;;;5017220;28;20072;-77
2022/05/13 06:28:56;;;;;;;10.23;2.00;;;13.00;99.90;;;;;;5017978;28;20353;-79
2022/05/13 06:31:26;;;;;;;15.55;2.35;;;12.90;99.90;;;;;;5016236;28;20042;-80
2022/05/13 06:33:54;;;;;;;19.25;2.75;;;12.90;99.90;;;;;;5017558;28;20042;-81
2022/05/13 06:36:22;;;;;;;15.95;2.83;;;12.90;99.90;;;;;;5016812;28;20046;-80
2022/05/13 06:38:49;;;;;;;17.73;2.55;;;12.90;99.90;;;;;;4998512;28;20046;-77
2022/05/13 06:41:17;;;;;;;13.50;2.28;;;13.00;99.90;;;;;;5016522;28;20069;-79
2022/05/13 06:43:45;;;;;;;14.88;2.60;;;13.00;99.90;;;;;;5016492;28;20049;-76
2022/05/13 06:46:13;;;;;;;14.13;2.53;;;13.00;99.90;;;;;;4998393;28;20050;-79
2022/05/13 06:48:47;;;;;;;16.17;3.03;;;13.10;99.90;;;;;;5016800;28;20049;-79
2022/05/13 06:51:19;;;;;;;17.63;3.05;;;13.10;99.90;;;;;;5015163;28;20042;-80
2022/05/13 06:53:46;;;;;;;14.25;2.80;;;13.20;99.90;;;;;;5016189;28;20046;-79
2022/05/13 06:56:14;;;;;;;16.55;3.22;;;13.20;99.90;;;;;;4999185;28;20068;-80
2022/05/13 06:58:42;;;;;;;19.23;3.05;;;13.30;99.90;;;;;;5015362;28;20053;-78
2022/05/13 07:01:09;;;;;;;12.40;2.58;;;13.30;99.90;;;;;;5016402;28;20046;-78
2022/05/13 07:03:37;;;;;;;11.23;2.60;;;13.40;99.90;;;;;;5016166;28;20045;-78
2022/05/13 07:06:05;;;;;;;19.33;3.58;;;13.40;99.90;;;;;;5013941;28;20049;-77
2022/05/13 07:08:32;;;;;;;16.88;3.20;;;13.50;99.90;;;;;;4999071;28;20053;-79
2022/05/13 07:11:00;;;;;;;22.10;3.40;;;13.60;99.90;;;;;;4981764;28;20306;-80
2022/05/13 07:13:27;;;;;;;15.70;3.42;;;13.70;99.90;;;;;;5016103;28;20050;-78
2022/05/13 07:16:00;;;;;;;16.65;3.60;;;13.70;99.90;;;;;;5015898;28;20057;-78
2022/05/13 07:18:31;;;;;;;11.90;3.00;;;13.80;99.90;;;;;;5014492;28;20048;-82
2022/05/13 07:21:05;;;;;;;16.55;3.30;;;13.80;99.90;;;;;;5016419;28;20049;-78
2022/05/13 07:23:36;;;;;;;17.17;3.15;;;13.90;99.90;;;;;;5016516;28;20429;-81
2022/05/13 07:26:04;;;;;;;10.13;2.58;;;14.00;99.90;;;;;;5015133;28;20046;-79
2022/05/13 07:28:33;;;;;;;14.05;2.80;;;14.00;99.90;;;;;;5016488;28;20049;-79
2022/05/13 07:31:01;;;;;;;16.48;3.28;;;14.10;99.90;;;;;;5015190;28;20050;-79
2022/05/13 07:33:30;;;;;;;13.52;3.10;;;14.10;99.90;;;;;;4999556;28;20042;-81
2022/05/13 07:35:58;;;;;;;17.17;3.50;;;14.10;99.90;;;;;;5016052;28;20050;-82
2022/05/13 07:38:27;;;;;;;14.77;3.58;;;14.20;99.90;;;;;;5015016;28;20047;-81
2022/05/13 07:43:41;;;;;;;15.25;2.90;;;14.20;99.90;;;;;;5015925;28;20056;-80
2022/05/13 07:46:09;;;;;;;13.23;3.15;;;14.20;99.90;;;;;;5014713;28;20054;-80
2022/05/13 07:48:43;;;;;;;14.45;3.05;;;14.10;99.90;;;;;;4999814;28;20125;-79
2022/05/13 07:51:12;;;;;;;14.00;2.90;;;14.10;99.90;;;;;;5014687;28;20453;-80
2022/05/13 07:53:40;;;;;;;12.07;2.88;;;14.10;99.90;;;;;;5015684;28;20057;-81
2022/05/13 07:56:08;;;;;;;11.55;2.97;;;14.00;99.90;;;;;;5016167;28;20078;-80
2022/05/13 07:58:36;;;;;;;9.25;2.90;;;14.00;99.90;;;;;;5014787;28;20046;-79
2022/05/13 08:01:04;;;;;;;17.85;2.95;;;14.10;99.90;;;;;;5015830;28;20053;-79
2022/05/13 08:03:31;;;;;;;19.77;3.20;;;14.20;99.90;;;;;;5015214;28;20049;-82
2022/05/13 08:06:03;;;;;;;15.48;3.13;;;14.30;99.90;;;;;;5014398;28;20057;-81
2022/05/13 08:08:35;;;;;;;17.20;3.08;;;14.40;99.90;;;;;;5015368;28;20048;-79
2022/05/13 08:11:05;;;;;;;13.23;3.28;;;14.60;99.90;;;;;;5013971;28;20054;-79
2022/05/13 08:13:34;;;;;;;16.65;3.35;;;14.80;99.90;;;;;;5013569;28;20065;-82
2022/05/13 08:16:04;;;;;;;;;;;15.00;99.90;;;;;;5014291;28;20065;-79
2022/05/13 08:18:32;;;;;;;19.42;3.40;;;15.10;99.90;;;;;;5013047;28;19921;-79
2022/05/13 08:21:03;;;;;;;16.35;3.20;;;15.20;99.90;;;;;;5014331;28;20053;-81
2022/05/13 08:23:30;;;;;;;14.02;2.45;;;15.20;99.90;;;;;;4996941;28;20355;-80
2022/05/13 08:26:01;;;;;;;14.13;2.42;;;15.20;99.90;;;;;;5013845;28;20046;-79
2022/05/13 08:28:28;;;;;;;11.15;2.30;;;15.20;99.90;;;;;;5014448;28;20399;-79
2022/05/13 08:30:56;;;;;;;15.02;2.17;;;15.20;99.90;;;;;;4996573;28;20046;-79
2022/05/13 08:33:24;;;;;;;13.35;2.45;;;15.10;99.90;;;;;;5014637;28;20046;-78
2022/05/13 08:35:55;;;;;;;16.58;2.50;;;15.00;99.90;;;;;;5015017;28;20488;-80
2022/05/13 08:38:26;;;;;;;14.13;2.40;;;14.90;99.90;;;;;;5014194;28;20473;-81
2022/05/13 08:41:28;;;;;;;14.77;2.38;;;14.90;99.90;;;;;;4997951;28;20064;-80
2022/05/13 08:44:01;;;;;;;13.52;2.25;;;14.90;99.90;;;;;;5014971;28;20050;-79
2022/05/13 08:46:40;;;;;;;12.10;2.60;;;14.80;99.90;;;;;;4997336;28;20065;-79
2022/05/13 08:49:54;;;;;;;13.15;2.40;;;14.90;99.90;;;;;;4997921;28;20046;-79
2022/05/13 08:55:10;;;;;;;9.35;1.75;;;15.10;99.90;;;;;;5014873;28;20037;-78
2022/05/13 08:57:42;;;;;;;9.57;2.15;;;15.00;99.90;;;;;;5014089;28;20310;-78
2022/05/13 09:00:26;;;;;;;12.10;2.20;;;14.90;99.90;;;;;;5014704;28;20042;-81
2022/05/13 09:03:13;;;;;;;15.07;2.20;;;14.90;99.90;;;;;;5014510;28;20129;-79
2022/05/13 09:05:48;;;;;;;12.55;2.30;;;14.80;99.90;;;;;;5013806;28;20050;-80
2022/05/13 09:08:16;;;;;;;11.50;2.15;;;14.80;99.90;;;;;;5014914;28;20073;-79
2022/05/13 09:10:56;;;;;;;12.30;2.03;;;14.80;99.90;;;;;;4996368;28;20052;-79
2022/05/13 09:13:44;;;;;;;11.30;2.00;;;14.80;99.90;;;;;;5014402;28;20462;-81
2022/05/13 09:16:13;;;;;;;14.30;2.33;;;14.80;99.90;;;;;;4981763;28;20050;-78
2022/05/13 09:18:58;;;;;;;13.60;2.30;;;14.80;99.90;;;;;;5013465;28;20046;-80
2022/05/13 09:21:25;;;;;;;12.82;2.22;;;14.80;99.90;;;;;;4997586;28;20056;-80
2022/05/13 09:23:53;;;;;;;8.50;1.90;;;14.80;99.90;;;;;;5014059;28;20053;-79
2022/05/13 09:26:28;;;;;;;15.15;2.78;;;14.90;99.90;;;;;;5013373;28;20068;-80
2022/05/13 09:29:09;;;;;;;15.80;2.70;;;15.00;99.90;;;;;;5014487;28;20397;-80
2022/05/13 09:31:56;;;;;;;12.23;2.33;;;15.20;99.90;;;;;;4996246;28;20049;-79
2022/05/13 09:34:56;;;;;;;16.98;2.83;;;15.40;99.90;;;;;;4997779;28;20049;-78
2022/05/13 09:37:26;;;;;;;13.63;3.28;;;15.60;99.90;;;;;;5013258;28;20053;-80
2022/05/13 09:40:06;;;;;;;15.27;2.50;;;15.40;99.90;;;;;;4997507;28;20516;-79
2022/05/13 09:42:40;;;;;;;12.48;2.78;;;15.90;99.90;;;;;;4997051;28;20354;-81
2022/05/13 09:45:25;;;;;;;11.80;2.53;;;15.90;99.90;;;;;;4999381;28;20060;-81
2022/05/13 09:48:10;;;;;;;12.98;2.97;;;15.90;99.90;;;;;;5017897;28;20057;-80
2022/05/13 09:50:49;;;;;;;13.02;2.95;;;16.00;99.90;;;;;;5000825;28;20054;-79
2022/05/13 09:53:23;;;;;;;12.73;2.58;;;16.00;99.90;;;;;;5018402;28;20448;-82
2022/05/13 09:55:54;;;;;;;12.15;2.88;;;16.10;99.90;;;;;;5000658;28;20045;-79
2022/05/13 09:58:29;;;;;;;13.60;2.75;;;16.30;99.90;;;;;;5016626;28;20038;-79
2022/05/13 10:01:09;;;;;;;16.08;2.83;;;16.30;99.90;;;;;;5017653;28;20483;-78
2022/05/13 10:03:39;;;;;;;16.00;3.00;;;16.40;99.90;;;;;;5017814;28;20054;-78
2022/05/13 10:06:10;;;;;;;15.63;2.90;;;16.60;99.90;;;;;;5016158;28;20066;-80
2022/05/13 10:08:50;;;;;;;16.08;3.08;;;16.70;99.90;;;;;;5017778;28;20049;-78
2022/05/13 10:14:34;;;;;;;13.20;2.95;;;17.00;99.90;;;;;;5017702;28;20487;-79
2022/05/13 10:17:26;;;;;;;16.50;2.92;;;17.00;99.90;;;;;;5016491;28;20054;-80
2022/05/13 10:20:00;;;;;;;12.68;2.72;;;17.00;99.90;;;;;;4990404;28;20381;-79
2022/05/13 10:22:36;;;;;;;14.75;2.72;;;16.90;99.90;;;;;;5017258;28;20376;-80
2022/05/13 10:25:20;;;;;;;15.40;2.80;;;17.00;99.90;;;;;;5016084;28;20053;-81
2022/05/13 10:27:52;;;;;;;14.27;2.83;;;17.10;99.90;;;;;;5016865;28;20065;-80
2022/05/13 10:30:48;;;;;;;17.98;2.97;;;17.10;99.90;;;;;;5016808;28;20065;-80
2022/05/13 10:33:53;;;;;;;9.38;2.28;;;17.10;99.90;;;;;;4983944;28;20050;-79
2022/05/13 10:36:41;;;;;;;11.77;2.67;;;17.10;99.90;;;;;;5016827;28;20369;-78
2022/05/13 10:39:44;;;;;;;10.32;2.38;;;17.20;99.90;;;;;;5016346;28;20050;-81
2022/05/13 10:42:15;;;;;;;15.00;2.78;;;17.20;99.90;;;;;;5016890;28;20048;-79
2022/05/13 10:45:00;;;;;;;14.95;2.65;;;17.30;99.90;;;;;;5015999;28;20042;-78
2022/05/13 10:48:11;;;;;;;17.42;2.95;;;17.40;99.90;;;;;;5016337;28;20053;-80
2022/05/13 10:50:58;;;;;;;12.10;2.78;;;17.40;99.90;;;;;;4983334;28;20477;-82
2022/05/13 10:53:45;;;;;;;11.27;2.72;;;17.40;99.90;;;;;;4999261;28;20515;-80
2022/05/13 10:56:42;;;;;;;14.70;2.85;;;17.50;99.90;;;;;;4999223;28;20377;-79
2022/05/13 10:59:09;;;;;;;12.07;2.80;;;17.80;99.90;;;;;;5015318;28;20042;-76
2022/05/13 11:02:04;;;;;;;12.63;2.55;;;18.00;99.90;;;;;;5015870;28;20050;-78
2022/05/13 11:04:59;;;;;;;15.63;2.67;;;18.10;99.90;;;;;;5015088;28;20454;-78
2022/05/13 11:07:36;;;;;;;13.80;2.85;;;18.20;99.90;;;;;;4999487;28;20057;-78
2022/05/13 11:10:09;;;;;;;16.13;2.53;;;18.20;99.70;;;;;;5016312;28;20046;-77
2022/05/13 11:13:05;;;;;;;7.18;2.05;;;18.20;99.60;;;;;;5015315;28;20050;-76
2022/05/13 11:15:54;;;;;;;12.75;2.47;;;18.20;99.90;;;;;;5016250;28;20042;-75
2022/05/13 11:18:58;;;;;;;11.80;2.65;;;18.30;99.90;;;;;;5015296;28;20042;-76
2022/05/13 11:22:02;;;;;;;11.90;2.30;;;18.40;99.90;;;;;;5016544;28;20057;-75
2022/05/13 11:27:42;;;;;;;10.02;2.33;;;18.50;99.90;;;;;;4998856;28;20046;-75
2022/05/13 11:30:16;;;;;;;15.23;2.95;;;18.40;99.90;;;;;;5015948;28;20060;-74
2022/05/13 11:33:07;;;;;;;10.60;2.85;;;18.40;99.60;;;;;;5014990;28;20054;-73
2022/05/13 11:35:38;;;;;;;13.25;2.70;;;18.30;99.90;;;;;;5013045;28;20045;-72
2022/05/13 11:38:21;;;;;;;13.75;2.78;;;18.10;99.90;;;;;;4996985;28;20046;-73
2022/05/13 11:41:11;;;;;;;10.38;2.60;;;17.90;99.80;;;;;;5005871;28;20053;-74
2022/05/13 11:44:06;;;;;;;12.50;2.60;;;17.70;99.90;;;;;;4996296;28;20046;-74
2022/05/13 11:46:54;;;;;;;8.75;2.40;;;17.60;99.90;;;;;;4983748;28;21051;-73
2022/05/13 11:49:29;;;;;;;12.20;2.90;;;17.70;99.90;;;;;;5015319;28;20112;-74
2022/05/13 11:52:24;;;;;;;13.10;2.65;;;17.70;99.90;;;;;;5014192;28;20056;-73
2022/05/13 11:55:19;;;;;;;14.02;2.70;;;17.80;99.90;;;;;;5012902;28;20046;-76
2022/05/13 11:57:52;;;;;;;12.05;2.50;;;17.90;99.90;;;;;;5014106;28;20046;-74
2022/05/13 12:00:35;;;;;;;8.77;2.05;;;17.90;99.90;;;;;;5015137;28;20041;-74
2022/05/13 12:03:08;;;;;;;10.93;2.63;;;18.10;99.90;;;;;;5015003;28;20050;-74
2022/05/13 12:05:46;;;;;;;11.65;2.50;;;18.10;99.90;;;;;;5013688;28;20468;-74
2022/05/13 12:08:38;;;;;;;9.43;2.15;;;18.20;99.90;;;;;;5014417;28;20050;-74
2022/05/13 12:11:27;;;;;;;10.43;2.67;;;18.30;99.30;;;;;;5013760;28;20353;-74
2022/05/13 12:14:24;;;;;;;14.27;2.75;;;18.30;99.30;;;;;;5015392;28;20056;-74
2022/05/13 12:17:09;;;;;;;12.00;2.45;;;18.30;99.90;;;;;;5014952;28;20038;-74
2022/05/13 12:20:11;;;;;;;11.75;2.42;;;18.30;99.90;;;;;;4992934;28;20039;-74
2022/05/13 12:23:18;;;;;;;13.43;2.60;;;18.40;99.60;;;;;;4995024;28;20108;-74
2022/05/13 12:25:51;;;;;;;12.05;2.55;;;18.40;99.90;;;;;;4994192;28;20066;-74
2022/05/13 12:28:18;;;;;;;7.18;2.10;;;18.50;99.90;;;;;;4995999;28;20378;-74
2022/05/13 12:30:49;;;;;;;9.80;2.30;;;18.50;99.40;;;;;;4994083;28;20370;-74
2022/05/13 12:33:28;;;;;;;11.35;2.40;;;18.50;99.50;;;;;;4995374;28;20385;-74
2022/05/13 12:39:07;;;;;;;14.75;2.80;;;18.60;99.80;;;;;;4994301;28;20049;-74
2022/05/13 12:41:41;;;;;;;10.05;1.92;;;18.70;99.00;;;;;;4978279;28;20049;-75
2022/05/13 12:44:14;;;;;;;10.98;2.20;;;18.80;99.30;;;;;;4977666;28;20050;-75
2022/05/13 12:47:05;;;;;;;11.10;2.50;;;18.80;99.20;;;;;;4995184;28;20065;-75
2022/05/13 12:50:00;;;;;;;11.30;2.55;;;18.90;99.10;;;;;;4994311;28;20066;-74
2022/05/13 12:52:28;;;;;;;10.68;2.63;;;18.90;98.50;;;;;;4969073;28;20061;-72
2022/05/13 12:55:25;;;;;;;11.82;2.70;;;19.00;98.70;;;;;;4995047;28;20054;-72
2022/05/13 12:58:02;;;;;;;13.77;2.58;;;19.00;98.30;;;;;;4993954;28;20053;-72
2022/05/13 13:00:36;;;;;;;9.38;2.10;;;19.00;98.60;;;;;;4994941;28;20042;-68
2022/05/13 13:03:09;;;;;;;10.32;2.42;;;19.00;97.90;;;;;;4995146;28;20046;-71
2022/05/13 13:05:41;;;;;;;9.10;1.90;;;19.10;98.20;;;;;;4993890;28;20347;-71
2022/05/13 13:08:18;;;;;;;10.60;2.33;;;19.20;98.40;;;;;;4994981;28;20057;-72
2022/05/13 13:11:00;;;;;;;9.73;2.72;;;19.30;98.30;;;;;;4994017;28;20053;-72
2022/05/13 13:13:38;;;;;;;13.38;2.83;;;19.50;97.10;;;;;;4994837;28;20401;-72
2022/05/13 13:16:39;;;;;;;15.10;3.83;;;19.60;97.30;;;;;;4995275;28;20386;-72
2022/05/13 13:19:13;;;;;;;12.13;2.53;;;19.80;97.70;;;;;;4996871;28;20465;-73
2022/05/13 13:21:42;;;;;;;10.07;2.72;;;19.90;96.90;;;;;;4999031;28;20046;-73
2022/05/13 13:24:16;;;;;;;12.02;2.85;;;19.90;97.10;;;;;;4997648;28;20061;-73
2022/05/13 13:26:48;;;;;;;9.60;1.98;;;20.00;96.80;;;;;;4998964;28;20070;-73
2022/05/13 13:29:25;;;;;;;14.10;2.55;;;20.00;95.40;;;;;;4998573;28;20065;-73
2022/05/13 13:31:55;;;;;;;10.40;2.45;;;20.20;96.50;;;;;;4997526;28;20057;-72
2022/05/13 13:34:49;;;;;;;12.05;2.85;;;20.30;96.80;;;;;;4998409;28;20042;-72
2022/05/13 13:37:20;;;;;;;11.20;2.35;;;20.30;94.80;;;;;;4998711;28;20038;-72
2022/05/13 13:39:55;;;;;;;10.88;2.28;;;20.50;96.10;;;;;;4981543;28;20039;-74
2022/05/13 13:42:31;;;;;;;8.45;2.13;;;20.90;95.80;;;;;;4998727;28;20054;-74
2022/05/13 13:45:19;;;;;;;10.85;2.20;;;21.30;95.70;;;;;;4997667;28;20046;-74